»·PEaware :: N622SB KHQM-S23

N622SB :: KHQM-S23

FLIGHT INFORMATION

Flight Status: Arrived
Operator: Privately registered:
United States
More flights under this callsign
Pilot: Simon B. (27931)
Aircraft: BEECH AIRCRAFT BARON
(BE58)
More flights by this aircraft type
Origin: KHQM Bowerman
United States
Destination: S23 Ione Mun
United States
More flights between these airports :: More routes between these airports
Route: OLM ELN EPH GEG
File this flight plan on PilotEdge
Remarks:
Altitude:
(Current/Filed)
7,500ft
Speed:
(Current/Filed)
180kts
Departed: 09-Aug-20 05:29 PM
Arrived: 09-Aug-20 07:26 PM
Distance/Time
Traveled:
283nm/1:57
Distance/Time
To Go:
Arrived

Flight Plot

Page will automatically refresh every two minutes.

Flight plan parsing failed; only flown route is shown


Map Options




Map Legend


Flown Route
Filed Route
Departure Airport
Arrival Airport
Navaid (VOR, NDB)
Fix

Horizontal Profiles

Position Reports

Time Latitude Longitude Heading Altitude Ground
Speed
09-Aug-20 17:18 46.973561 -123.929662 350 16ft 0kts
09-Aug-20 17:19 46.973561 -123.929662 350 16ft 0kts
09-Aug-20 17:20 46.973561 -123.929662 350 16ft 0kts
09-Aug-20 17:21 46.973561 -123.929662 350 16ft 0kts
09-Aug-20 17:21 46.973562 -123.929662 350 16ft 0kts
09-Aug-20 17:23 46.973563 -123.929663 350 16ft 0kts
09-Aug-20 17:23 46.973564 -123.929663 350 16ft 0kts
09-Aug-20 17:24 46.973153 -123.929195 78 16ft 3kts
09-Aug-20 17:26 46.973291 -123.927740 105 16ft 6kts
09-Aug-20 17:26 46.972938 -123.927011 144 16ft 0kts
09-Aug-20 17:27 46.972718 -123.926849 160 16ft 3kts
09-Aug-20 17:28 46.971347 -123.935232 258 58ft 90kts
09-Aug-20 17:29 46.959288 -123.973839 187 1862ft 127kts
09-Aug-20 17:30 46.948759 -123.929504 76 3431ft 136kts
09-Aug-20 17:31 46.950008 -123.863935 91 3609ft 177kts
09-Aug-20 17:32 46.943690 -123.789705 95 3650ft 192kts
09-Aug-20 17:33 46.935942 -123.712396 94 3347ft 192kts
09-Aug-20 17:34 46.930774 -123.636233 91 3507ft 185kts
09-Aug-20 17:35 46.929485 -123.560085 84 3442ft 188kts
09-Aug-20 17:36 46.936211 -123.485490 78 3441ft 182kts
09-Aug-20 17:37 46.940613 -123.412989 84 3642ft 181kts
09-Aug-20 17:38 46.941308 -123.338009 89 3520ft 189kts
09-Aug-20 17:39 46.938965 -123.260310 90 3154ft 191kts
09-Aug-20 17:40 46.939459 -123.187430 83 3553ft 178kts
09-Aug-20 17:41 46.945083 -123.113702 84 3623ft 180kts
09-Aug-20 17:42 46.949832 -123.039946 78 3616ft 185kts
09-Aug-20 17:43 46.957394 -122.961778 79 3283ft 196kts
09-Aug-20 17:44 46.940755 -122.898787 140 3744ft 189kts
09-Aug-20 17:45 46.902704 -122.844267 137 4056ft 178kts
09-Aug-20 17:46 46.866713 -122.796929 137 5187ft 171kts
09-Aug-20 17:47 46.829587 -122.749802 133 5644ft 188kts
09-Aug-20 17:48 46.821802 -122.674538 88 5246ft 203kts
09-Aug-20 17:49 46.825520 -122.597430 81 5481ft 185kts
09-Aug-20 17:50 46.833162 -122.522415 80 5449ft 188kts
09-Aug-20 17:51 46.841260 -122.446333 79 5603ft 192kts
09-Aug-20 17:52 46.850750 -122.367559 77 5430ft 196kts
09-Aug-20 17:53 46.860284 -122.290606 78 5446ft 194kts
09-Aug-20 17:54 46.869207 -122.216940 78 6051ft 166kts
09-Aug-20 17:55 46.878493 -122.155611 74 7195ft 152kts
09-Aug-20 17:56 46.893566 -122.094437 58 7752ft 183kts
09-Aug-20 17:57 46.919396 -122.025049 59 7504ft 194kts
09-Aug-20 17:58 46.944600 -121.957663 59 7515ft 186kts
09-Aug-20 17:59 46.969696 -121.891291 59 7521ft 186kts
09-Aug-20 18:00 46.994789 -121.824937 59 7524ft 186kts
09-Aug-20 18:01 47.020022 -121.758601 59 7603ft 183kts
09-Aug-20 18:02 47.044735 -121.693196 59 7672ft 184kts
09-Aug-20 18:03 47.061943 -121.622138 77 7743ft 185kts
09-Aug-20 18:04 47.072963 -121.547199 80 7847ft 190kts
09-Aug-20 18:05 47.076100 -121.469546 94 7935ft 196kts
09-Aug-20 18:06 47.067382 -121.388787 99 7686ft 196kts
09-Aug-20 18:07 47.056638 -121.310551 95 7597ft 194kts
09-Aug-20 18:08 47.082307 -121.252841 24 7667ft 188kts
09-Aug-20 18:09 47.126765 -121.213738 36 7720ft 186kts
09-Aug-20 18:10 47.160712 -121.156363 62 7611ft 190kts
09-Aug-20 18:11 47.169219 -121.080449 86 7636ft 185kts
09-Aug-20 18:12 47.170766 -121.002610 96 7624ft 194kts
09-Aug-20 18:13 47.149157 -120.929866 117 7603ft 195kts
09-Aug-20 18:14 47.126594 -120.857596 109 7574ft 194kts
09-Aug-20 18:15 47.109055 -120.781395 108 7549ft 197kts
09-Aug-20 18:16 47.089804 -120.707378 111 7539ft 192kts
09-Aug-20 18:17 47.070083 -120.633365 110 7528ft 194kts
09-Aug-20 18:18 47.050690 -120.559016 110 7526ft 194kts
09-Aug-20 18:19 47.031129 -120.484285 110 7524ft 196kts
09-Aug-20 18:20 47.035629 -120.410268 61 7488ft 192kts
09-Aug-20 18:21 47.059614 -120.340238 67 7439ft 185kts
09-Aug-20 18:22 47.079092 -120.269473 63 7503ft 194kts
09-Aug-20 18:23 47.099935 -120.195477 68 7446ft 197kts
09-Aug-20 18:24 47.120780 -120.121411 66 7419ft 195kts
09-Aug-20 18:25 47.143577 -120.050156 62 7503ft 193kts
09-Aug-20 18:26 47.165176 -119.979737 57 7494ft 189kts
09-Aug-20 18:27 47.192575 -119.913996 57 7497ft 188kts
09-Aug-20 18:28 47.220862 -119.846198 57 7489ft 195kts
09-Aug-20 18:29 47.248959 -119.778824 57 7494ft 192kts
09-Aug-20 18:30 47.276705 -119.712026 59 7496ft 190kts
09-Aug-20 18:31 47.300921 -119.642204 62 7496ft 191kts
09-Aug-20 18:32 47.324716 -119.571729 62 7498ft 191kts
09-Aug-20 18:33 47.348538 -119.501635 61 7499ft 190kts
09-Aug-20 18:34 47.373063 -119.431714 61 7497ft 191kts
09-Aug-20 18:35 47.387470 -119.357267 84 7581ft 190kts
09-Aug-20 18:36 47.393390 -119.276810 83 7492ft 196kts
09-Aug-20 18:37 47.398851 -119.195697 83 7491ft 197kts
09-Aug-20 18:38 47.403966 -119.116576 83 7499ft 191kts
09-Aug-20 18:39 47.409146 -119.036037 83 7496ft 197kts
09-Aug-20 18:40 47.414287 -118.954624 85 7497ft 197kts
09-Aug-20 18:41 47.427017 -118.877788 71 7506ft 191kts
09-Aug-20 18:42 47.441948 -118.802545 74 7509ft 190kts
09-Aug-20 18:43 47.452307 -118.723691 80 7506ft 196kts
09-Aug-20 18:44 47.457790 -118.642392 83 7508ft 198kts
09-Aug-20 18:45 47.462965 -118.560368 81 7511ft 198kts
09-Aug-20 18:46 47.471378 -118.479436 77 7515ft 197kts
09-Aug-20 18:47 47.481809 -118.401004 76 7525ft 193kts
09-Aug-20 18:48 47.491230 -118.322886 78 7502ft 194kts
09-Aug-20 18:49 47.499143 -118.243967 79 7501ft 193kts
09-Aug-20 18:50 47.506946 -118.165107 79 7508ft 194kts
09-Aug-20 18:51 47.515556 -118.086449 78 7506ft 193kts
09-Aug-20 18:52 47.524230 -118.007866 78 7509ft 193kts
09-Aug-20 18:53 47.532554 -117.928892 78 7509ft 194kts
09-Aug-20 18:54 47.541069 -117.849808 78 7511ft 194kts
09-Aug-20 18:55 47.549518 -117.770823 78 7517ft 194kts
09-Aug-20 18:56 47.558027 -117.691645 78 7509ft 194kts
09-Aug-20 18:57 47.573215 -117.617392 37 7522ft 186kts
09-Aug-20 18:58 47.615984 -117.574544 29 7508ft 185kts
09-Aug-20 18:59 47.660822 -117.537629 18 7504ft 183kts
09-Aug-20 19:00 47.708248 -117.509318 18 7496ft 183kts
09-Aug-20 19:01 47.755442 -117.480769 19 7492ft 183kts
09-Aug-20 19:02 47.799876 -117.442445 27 7496ft 185kts
09-Aug-20 19:03 47.844954 -117.405880 22 7495ft 183kts
09-Aug-20 19:04 47.890936 -117.372213 22 7500ft 184kts
09-Aug-20 19:05 47.936968 -117.338457 22 7497ft 184kts
09-Aug-20 19:06 47.983046 -117.304666 22 7501ft 185kts
09-Aug-20 19:08 48.029145 -117.270817 22 7504ft 184kts
09-Aug-20 19:09 48.075340 -117.236896 22 7499ft 185kts
09-Aug-20 19:10 48.121688 -117.202797 22 7501ft 185kts
09-Aug-20 19:11 48.169283 -117.178178 346 7396ft 182kts
09-Aug-20 19:12 48.218711 -117.201309 338 6745ft 195kts
09-Aug-20 19:13 48.270648 -117.225373 342 6124ft 189kts
09-Aug-20 19:14 48.322580 -117.246464 341 5476ft 191kts
09-Aug-20 19:15 48.374738 -117.265199 350 4859ft 198kts
09-Aug-20 19:16 48.430237 -117.267488 3 4426ft 195kts
09-Aug-20 19:17 48.483080 -117.266446 347 4475ft 186kts
09-Aug-20 19:18 48.529900 -117.302116 325 4298ft 192kts
09-Aug-20 19:19 48.575906 -117.338977 340 4388ft 187kts
09-Aug-20 19:20 48.624906 -117.363139 337 4135ft 182kts
09-Aug-20 19:21 48.668800 -117.393089 337 4146ft 163kts
09-Aug-20 19:22 48.709728 -117.411997 346 4077ft 137kts
09-Aug-20 19:23 48.730279 -117.448057 253 3820ft 137kts
09-Aug-20 19:23 48.702373 -117.447648 161 3586ft 129kts
09-Aug-20 19:25 48.682969 -117.409715 28 2698ft 123kts
09-Aug-20 19:26 48.708855 -117.413041 350 2109ft 19kts
09-Aug-20 19:26 48.712573 -117.413776 54 2109ft 12kts
09-Aug-20 19:28 48.712563 -117.413164 162 2109ft 0kts

Navigation Log

Ident Type
Flight plan parsing failed, navigation log unavailable